createdAt,value
2019-04-16T00:01:21.571Z,1.47
2019-04-16T00:05:30.879Z,1.07
2019-04-16T00:09:38.927Z,1.15
2019-04-16T00:13:44.284Z,1.20
2019-04-16T00:17:48.130Z,1.20
2019-04-16T00:22:02.465Z,1.35
2019-04-16T00:26:07.512Z,1.85
2019-04-16T00:30:11.653Z,1.42
2019-04-16T00:34:15.251Z,1.10
2019-04-16T00:38:22.464Z,0.88
2019-04-16T00:42:24.340Z,0.70
2019-04-16T00:46:27.935Z,1.10
2019-04-16T00:50:31.586Z,1.17
2019-04-16T00:54:35.168Z,1.07
2019-04-16T00:58:38.776Z,0.50
2019-04-16T01:02:42.798Z,1.30
2019-04-16T01:06:46.415Z,0.90
2019-04-16T01:10:50.078Z,1.15
2019-04-16T01:14:56.302Z,1.20
2019-04-16T01:18:59.093Z,0.65
2019-04-16T01:23:02.811Z,1.70
2019-04-16T01:27:06.532Z,0.53
2019-04-16T01:31:26.737Z,1.52
2019-04-16T01:35:37.511Z,0.82
2019-04-16T01:39:47.397Z,1.07
2019-04-16T01:43:48.223Z,0.78
2019-04-16T01:47:51.946Z,0.55
2019-04-16T01:51:55.551Z,0.62
2019-04-16T01:55:59.372Z,1.02
2019-04-16T02:00:06.777Z,0.82
2019-04-16T02:04:08.545Z,0.25
2019-04-16T02:08:12.069Z,0.90
2019-04-16T02:12:15.668Z,0.68
2019-04-16T02:16:19.215Z,0.28
2019-04-16T02:20:22.793Z,0.68
2019-04-16T02:24:26.415Z,0.97
2019-04-16T02:28:30.021Z,1.02
2019-04-16T02:32:33.636Z,0.72
2019-04-16T02:36:37.253Z,0.80
2019-04-16T02:40:40.867Z,0.40
2019-04-16T02:44:48.852Z,0.78
2019-04-16T02:48:51.496Z,0.62
2019-04-16T02:52:59.793Z,0.15
2019-04-16T02:57:07.916Z,1.52
2019-04-16T03:01:20.431Z,1.12
2019-04-16T03:05:22.609Z,1.00
2019-04-16T03:09:26.239Z,1.16
2019-04-16T03:13:30.046Z,0.33
2019-04-16T03:17:35.636Z,0.78
2019-04-16T03:21:39.324Z,1.25
2019-04-16T03:25:44.436Z,0.47
2019-04-16T03:29:48.392Z,2.08
2019-04-16T03:33:52.111Z,0.88
2019-04-16T03:37:55.824Z,0.75
2019-04-16T03:41:59.444Z,0.20
2019-04-16T03:46:03.293Z,1.42
2019-04-16T03:50:07.620Z,2.27
2019-04-16T03:54:11.705Z,1.22
2019-04-16T03:58:15.541Z,0.57
2019-04-16T04:02:22.178Z,0.57
2019-04-16T04:06:24.497Z,0.78
2019-04-16T04:10:30.951Z,0.28
2019-04-16T04:14:33.505Z,0.60
2019-04-16T04:18:37.081Z,0.70
2019-04-16T04:22:40.807Z,0.82
2019-04-16T04:26:44.407Z,1.27
2019-04-16T04:30:48.966Z,0.72
2019-04-16T04:34:52.676Z,1.52
2019-04-16T04:38:56.581Z,0.50
2019-04-16T04:43:00.947Z,1.92
2019-04-16T04:47:05.245Z,0.65
2019-04-16T04:51:09.147Z,0.82
2019-04-16T04:55:12.882Z,1.95
2019-04-16T04:59:16.598Z,0.40
2019-04-16T05:03:24.826Z,0.62
2019-04-16T05:07:29.350Z,1.15
2019-04-16T05:11:33.175Z,0.72
2019-04-16T05:15:36.888Z,0.98
2019-04-16T05:19:43.765Z,1.17
2019-04-16T05:23:45.957Z,0.42
2019-04-16T05:27:49.572Z,1.37
2019-04-16T05:31:54.534Z,1.85
2019-04-16T05:35:59.438Z,1.75
2019-04-16T05:40:05.192Z,0.15
2019-04-16T05:44:08.841Z,0.82
2019-04-16T05:48:12.864Z,1.12
2019-04-16T05:52:16.681Z,1.42
2019-04-16T05:56:30.630Z,0.62
2019-04-16T06:00:41.752Z,1.05
2019-04-16T06:04:43.905Z,0.50
2019-04-16T06:08:47.518Z,1.42
2019-04-16T06:12:59.855Z,0.72
2019-04-16T06:17:13.689Z,1.22
2019-04-16T06:21:31.024Z,1.12
2019-04-16T06:25:41.276Z,1.62
2019-04-16T06:29:57.588Z,2.65
2019-04-16T06:34:23.431Z,1.62
2019-04-16T06:38:42.114Z,0.70
2019-04-16T06:42:58.863Z,1.57
2019-04-16T06:47:04.081Z,1.50
2019-04-16T06:51:12.646Z,1.72
2019-04-16T06:55:34.772Z,2.22
2019-04-16T06:59:53.322Z,1.45
2019-04-16T07:03:59.880Z,2.65
2019-04-16T07:08:11.100Z,1.50
2019-04-16T07:12:16.350Z,1.37
2019-04-16T07:16:19.964Z,1.27
2019-04-16T07:20:23.579Z,1.10
2019-04-16T07:24:30.797Z,1.40
2019-04-16T07:28:34.494Z,2.45
2019-04-16T07:32:54.696Z,2.50
2019-04-16T07:37:02.487Z,2.10
2019-04-16T07:41:16.876Z,2.02
2019-04-16T07:45:20.901Z,1.35
2019-04-16T07:49:29.124Z,1.67
2019-04-16T07:53:47.457Z,2.07
2019-04-16T07:57:51.916Z,2.25
2019-04-16T08:01:55.795Z,1.95
2019-04-16T08:05:59.445Z,2.33
2019-04-16T08:10:03.440Z,2.10
2019-04-16T08:14:09.830Z,2.15
2019-04-16T08:18:12.533Z,2.20
2019-04-16T08:22:16.771Z,1.85
2019-04-16T08:26:20.496Z,1.98
2019-04-16T08:30:24.096Z,1.90
2019-04-16T08:34:27.814Z,2.62
2019-04-16T08:38:34.280Z,2.40
2019-04-16T08:42:44.484Z,2.77
2019-04-16T08:46:43.063Z,2.07
2019-04-16T08:50:49.339Z,2.12
2019-04-16T08:54:54.866Z,2.33
2019-04-16T08:59:00.901Z,2.42
2019-04-16T09:03:03.969Z,2.60
2019-04-16T09:07:12.165Z,1.75
2019-04-16T09:11:23.065Z,2.87
2019-04-16T09:15:21.869Z,2.30
2019-04-16T09:19:26.506Z,2.75
2019-04-16T09:23:30.223Z,2.10
2019-04-16T09:27:44.488Z,2.58
2019-04-16T09:31:55.085Z,1.92
2019-04-16T09:35:59.743Z,3.25
2019-04-16T09:40:16.446Z,1.57
2019-04-16T09:44:11.336Z,2.08
2019-04-16T09:48:15.105Z,1.42
2019-04-16T09:52:19.965Z,1.87
2019-04-16T09:56:29.879Z,2.60
2019-04-16T10:00:35.017Z,1.87
2019-04-16T10:04:38.619Z,1.98
2019-04-16T10:08:44.934Z,2.22
2019-04-16T10:12:47.709Z,2.20
2019-04-16T10:16:51.308Z,3.08
2019-04-16T10:20:54.916Z,2.65
2019-04-16T10:25:00.213Z,2.05
2019-04-16T10:29:06.065Z,1.75
2019-04-16T10:33:09.955Z,3.05
2019-04-16T10:37:13.675Z,2.42
2019-04-16T10:41:18.941Z,3.27
2019-04-16T10:45:30.248Z,2.23
2019-04-16T10:49:51.575Z,1.80
2019-04-16T10:54:02.745Z,2.30
2019-04-16T10:58:11.077Z,2.37
2019-04-16T11:02:32.695Z,1.80
2019-04-16T11:06:37.978Z,2.10
2019-04-16T11:10:41.855Z,3.08
2019-04-16T11:14:45.613Z,3.30
2019-04-16T11:18:49.550Z,2.65
2019-04-16T11:22:53.228Z,2.72
2019-04-16T11:26:56.842Z,2.80
2019-04-16T11:31:17.144Z,0.80
2019-04-16T11:35:23.093Z,1.35
2019-04-16T11:39:26.539Z,1.62
2019-04-16T11:43:30.377Z,1.00
2019-04-16T11:47:34.872Z,2.40
2019-04-16T11:51:38.651Z,3.12
2019-04-16T11:55:42.362Z,1.82
2019-04-16T11:59:45.952Z,2.15
2019-04-16T12:03:51.291Z,2.87
2019-04-16T12:08:08.434Z,2.52
2019-04-16T12:12:13.677Z,2.22
2019-04-16T12:16:24.394Z,2.83
2019-04-16T12:20:45.004Z,2.00
2019-04-16T12:24:52.908Z,2.00
2019-04-16T12:28:58.170Z,2.42
2019-04-16T12:33:07.465Z,2.15
2019-04-16T12:37:16.676Z,3.87
2019-04-16T12:41:39.808Z,1.45
2019-04-16T12:45:45.140Z,2.20
2019-04-16T12:49:53.265Z,2.65
2019-04-16T12:54:04.567Z,2.65
2019-04-16T12:58:10.939Z,2.85
2019-04-16T13:02:18.953Z,2.52
2019-04-16T13:06:26.933Z,2.00
2019-04-16T13:10:33.964Z,2.92
2019-04-16T13:15:00.465Z,2.02
2019-04-16T13:19:04.031Z,1.70
2019-04-16T13:23:24.334Z,1.35
2019-04-16T13:27:29.599Z,2.65
2019-04-16T13:31:33.290Z,3.67
2019-04-16T13:35:37.032Z,2.80
2019-04-16T13:39:42.378Z,4.20
2019-04-16T13:43:50.298Z,2.80
2019-04-16T13:47:56.102Z,2.67
2019-04-16T13:51:59.778Z,2.72
2019-04-16T13:56:20.895Z,2.87
2019-04-16T14:00:28.914Z,3.10
2019-04-16T14:04:32.632Z,3.27
2019-04-16T14:08:36.242Z,2.05
2019-04-16T14:12:42.512Z,2.80
2019-04-16T14:16:46.439Z,3.95
2019-04-16T14:20:50.086Z,3.50
2019-04-16T14:24:53.745Z,3.20
2019-04-16T14:28:58.635Z,3.00
2019-04-16T14:33:06.164Z,2.42
2019-04-16T14:37:07.997Z,3.58
2019-04-16T14:41:15.759Z,3.90
2019-04-16T14:45:20.371Z,4.00
2019-04-16T14:49:25.679Z,3.87
2019-04-16T14:53:31.272Z,3.22
2019-04-16T14:57:36.510Z,3.87
2019-04-16T15:01:48.162Z,4.53
2019-04-16T15:06:08.676Z,4.55
2019-04-16T15:10:23.787Z,3.85
2019-04-16T15:14:32.729Z,4.30
2019-04-16T15:18:46.809Z,2.02
2019-04-16T15:22:52.376Z,3.92
2019-04-16T15:26:57.762Z,3.98
2019-04-16T15:31:03.296Z,2.95
2019-04-16T15:35:14.081Z,3.58
2019-04-16T15:39:17.024Z,3.65
2019-04-16T15:43:38.807Z,3.42
2019-04-16T15:47:53.344Z,4.58
2019-04-16T15:52:15.014Z,4.72
2019-04-16T15:56:36.779Z,4.20
2019-04-16T16:00:49.370Z,2.70
2019-04-16T16:05:00.458Z,4.22
2019-04-16T16:09:21.486Z,3.80
2019-04-16T16:13:26.317Z,3.23
2019-04-16T16:17:31.064Z,3.83
2019-04-16T16:21:34.678Z,4.08
2019-04-16T16:25:41.442Z,3.40
2019-04-16T16:29:44.466Z,4.00
2019-04-16T16:33:48.007Z,4.20
2019-04-16T16:37:52.024Z,2.95
2019-04-16T16:41:57.458Z,4.55
2019-04-16T16:46:05.793Z,2.83
2019-04-16T16:50:12.130Z,2.62
2019-04-16T16:54:28.781Z,3.33
2019-04-16T16:58:36.723Z,4.20
2019-04-16T17:02:44.515Z,4.55
2019-04-16T17:06:48.351Z,4.15
2019-04-16T17:10:51.946Z,3.35
2019-04-16T17:14:55.881Z,3.17
2019-04-16T17:18:59.525Z,3.55
2019-04-16T17:23:03.401Z,3.05
2019-04-16T17:27:07.113Z,3.27
2019-04-16T17:31:10.918Z,3.12
2019-04-16T17:35:15.936Z,3.80
2019-04-16T17:39:36.079Z,4.05
2019-04-16T17:44:01.896Z,2.65
2019-04-16T17:48:09.112Z,4.03
2019-04-16T17:52:16.839Z,3.62
2019-04-16T17:56:38.062Z,3.50
2019-04-16T18:00:49.772Z,4.03
2019-04-16T18:04:58.187Z,3.12
2019-04-16T18:09:19.923Z,4.30
2019-04-16T18:13:37.875Z,3.17
2019-04-16T18:17:47.416Z,2.65
2019-04-16T18:21:55.955Z,2.80
2019-04-16T18:26:15.676Z,4.70
2019-04-16T18:30:27.862Z,3.15
2019-04-16T18:34:33.214Z,3.35
2019-04-16T18:38:47.477Z,2.87
2019-04-16T18:42:59.169Z,2.95
2019-04-16T18:47:16.418Z,3.35
2019-04-16T18:51:19.954Z,3.65
2019-04-16T18:55:23.743Z,2.42
2019-04-16T18:59:27.468Z,3.27
2019-04-16T19:03:31.182Z,3.15
2019-04-16T19:07:34.800Z,3.75
2019-04-16T19:11:38.611Z,4.42
2019-04-16T19:15:42.236Z,3.37
2019-04-16T19:19:45.938Z,2.30
2019-04-16T19:23:49.656Z,2.30
2019-04-16T19:27:53.269Z,2.50
2019-04-16T19:31:57.556Z,1.84
2019-04-16T19:36:01.164Z,2.20
2019-04-16T19:40:05.340Z,3.92
2019-04-16T19:44:11.917Z,2.83
2019-04-16T19:48:17.939Z,3.33
2019-04-16T19:52:21.102Z,3.10
2019-04-16T19:56:24.710Z,1.98
2019-04-16T20:00:28.269Z,2.62
2019-04-16T20:04:32.042Z,2.62
2019-04-16T20:08:39.868Z,3.50
2019-04-16T20:12:41.115Z,3.00
2019-04-16T20:16:44.730Z,4.03
2019-04-16T20:20:50.188Z,2.27
2019-04-16T20:24:53.801Z,2.08
2019-04-16T20:28:57.499Z,2.22
2019-04-16T20:33:01.504Z,2.27
2019-04-16T20:37:05.255Z,2.95
2019-04-16T20:41:08.865Z,2.42
2019-04-16T20:45:12.786Z,2.62
2019-04-16T20:49:18.412Z,1.95
2019-04-16T20:53:21.756Z,2.60
2019-04-16T20:57:26.411Z,3.05
2019-04-16T21:01:35.184Z,2.78
2019-04-16T21:05:36.680Z,3.08
2019-04-16T21:09:40.411Z,1.85
2019-04-16T21:13:44.054Z,2.42
2019-04-16T21:17:49.687Z,3.40
2019-04-16T21:21:56.513Z,2.50
2019-04-16T21:25:58.643Z,2.80
2019-04-16T21:30:03.862Z,1.80
2019-04-16T21:34:09.262Z,2.22
2019-04-16T21:38:14.513Z,2.58
2019-04-16T21:42:18.128Z,2.33
2019-04-16T21:46:21.741Z,2.22
2019-04-16T21:50:25.459Z,2.40
2019-04-16T21:54:30.502Z,2.58
2019-04-16T21:58:34.739Z,2.12
2019-04-16T22:02:39.987Z,3.40
2019-04-16T22:06:43.702Z,4.33
2019-04-16T22:10:47.421Z,2.60
2019-04-16T22:14:54.416Z,2.87
2019-04-16T22:18:56.595Z,3.12
2019-04-16T22:23:00.753Z,2.87
2019-04-16T22:27:06.963Z,2.52
2019-04-16T22:31:09.893Z,3.77
2019-04-16T22:35:13.723Z,2.58
2019-04-16T22:39:18.966Z,2.30
2019-04-16T22:43:29.742Z,2.72
2019-04-16T22:47:35.004Z,3.83
2019-04-16T22:51:39.826Z,2.15
2019-04-16T22:55:44.065Z,3.72
2019-04-16T22:59:47.653Z,3.00
2019-04-16T23:03:53.374Z,2.40
2019-04-16T23:07:56.853Z,2.95
2019-04-16T23:12:00.801Z,4.00
2019-04-16T23:16:04.674Z,2.12
2019-04-16T23:20:09.535Z,1.85
2019-04-16T23:24:13.177Z,2.62
2019-04-16T23:28:16.868Z,2.85
2019-04-16T23:32:20.481Z,2.35
2019-04-16T23:36:24.097Z,1.92
2019-04-16T23:40:27.680Z,2.77
2019-04-16T23:44:47.713Z,1.95
2019-04-16T23:49:02.091Z,2.55
2019-04-16T23:53:08.974Z,2.77
2019-04-16T23:57:16.882Z,2.40
